createdAt,value
2018-06-24T00:00:51.208Z,96.80
2018-06-24T00:01:51.206Z,96.80
2018-06-24T00:02:51.200Z,96.89
2018-06-24T00:03:51.193Z,96.80
2018-06-24T00:04:51.192Z,96.61
2018-06-24T00:05:51.185Z,96.70
2018-06-24T00:06:51.187Z,96.80
2018-06-24T00:07:51.183Z,97.37
2018-06-24T00:08:51.177Z,97.08
2018-06-24T00:09:51.173Z,97.08
2018-06-24T00:10:51.166Z,97.18
2018-06-24T00:11:51.161Z,97.37
2018-06-24T00:12:51.163Z,97.08
2018-06-24T00:13:51.180Z,96.89
2018-06-24T00:14:51.150Z,97.23
2018-06-24T00:15:51.146Z,97.61
2018-06-24T00:16:51.144Z,97.75
2018-06-24T00:17:51.138Z,97.75
2018-06-24T00:18:51.140Z,97.71
2018-06-24T00:19:51.136Z,98.09
2018-06-24T00:20:51.133Z,98.09
2018-06-24T00:21:51.129Z,97.80
2018-06-24T00:22:51.121Z,98.09
2018-06-24T00:23:51.115Z,97.71
2018-06-24T00:24:51.111Z,98.47
2018-06-24T00:25:51.107Z,98.47
2018-06-24T00:26:51.108Z,98.57
2018-06-24T00:27:51.106Z,98.71
2018-06-24T00:28:51.095Z,98.66
2018-06-24T00:29:51.092Z,98.57
2018-06-24T00:30:51.092Z,98.66
2018-06-24T00:31:51.092Z,98.57
2018-06-24T00:32:51.085Z,98.57
2018-06-24T00:33:51.082Z,98.71
2018-06-24T00:34:51.074Z,98.47
2018-06-24T00:35:51.070Z,98.57
2018-06-24T00:36:51.065Z,98.38
2018-06-24T00:37:51.062Z,98.47
2018-06-24T00:38:51.062Z,98.33
2018-06-24T00:39:51.058Z,98.33
2018-06-24T00:40:51.052Z,98.38
2018-06-24T00:41:51.049Z,98.52
2018-06-24T00:42:51.041Z,98.61
2018-06-24T00:43:51.036Z,99.10
2018-06-24T00:44:51.037Z,98.47
2018-06-24T00:45:51.034Z,98.90
2018-06-24T00:46:51.027Z,99.00
2018-06-24T00:47:51.021Z,99.00
2018-06-24T00:48:51.018Z,98.43
2018-06-24T00:49:51.014Z,98.61
2018-06-24T00:50:51.019Z,98.61
2018-06-24T00:51:51.012Z,98.61
2018-06-24T00:52:51.008Z,98.71
2018-06-24T00:53:51.005Z,98.71
2018-06-24T00:54:50.997Z,98.43
2018-06-24T00:55:50.991Z,98.52
2018-06-24T00:56:50.992Z,98.33
2018-06-24T00:57:50.987Z,98.43
2018-06-24T00:58:50.985Z,98.71
2018-06-24T00:59:50.980Z,98.52
2018-06-24T01:00:50.974Z,98.33
2018-06-24T01:01:50.970Z,98.71
2018-06-24T01:02:50.969Z,98.33
2018-06-24T01:03:50.965Z,98.71
2018-06-24T01:04:50.962Z,98.04
2018-06-24T01:05:50.959Z,97.95
2018-06-24T01:06:50.950Z,97.47
2018-06-24T01:07:50.951Z,96.99
2018-06-24T01:08:50.941Z,96.51
2018-06-24T01:09:50.942Z,96.89
2018-06-24T01:10:50.940Z,96.99
2018-06-24T01:11:50.936Z,96.80
2018-06-24T01:12:50.931Z,96.99
2018-06-24T01:13:50.928Z,96.84
2018-06-24T01:14:50.920Z,97.04
2018-06-24T01:15:50.917Z,97.04
2018-06-24T01:16:50.917Z,96.61
2018-06-24T01:17:50.914Z,96.75
2018-06-24T01:18:50.904Z,96.80
2018-06-24T01:19:50.900Z,97.37
2018-06-24T01:20:50.897Z,97.33
2018-06-24T01:21:50.893Z,97.33
2018-06-24T01:22:50.894Z,97.08
2018-06-24T01:23:50.890Z,97.66
2018-06-24T01:24:50.886Z,97.75
2018-06-24T01:25:50.882Z,97.85
2018-06-24T01:26:50.874Z,97.28
2018-06-24T01:27:50.870Z,98.14
2018-06-24T01:28:50.870Z,97.66
2018-06-24T01:29:50.864Z,98.04
2018-06-24T01:30:50.867Z,98.04
2018-06-24T01:31:50.860Z,98.04
2018-06-24T01:32:50.853Z,98.24
2018-06-24T01:33:50.848Z,98.33
2018-06-24T01:34:50.850Z,98.71
2018-06-24T01:35:50.846Z,98.47
2018-06-24T01:36:50.843Z,98.43
2018-06-24T01:37:50.839Z,98.71
2018-06-24T01:38:50.832Z,98.43
2018-06-24T01:39:50.825Z,98.71
2018-06-24T01:40:50.822Z,98.57
2018-06-24T01:41:50.818Z,98.71
2018-06-24T01:42:50.819Z,98.52
2018-06-24T01:43:50.816Z,98.14
2018-06-24T01:44:50.813Z,98.28
2018-06-24T01:45:50.808Z,99.04
2018-06-24T01:46:50.800Z,98.85
2018-06-24T01:47:50.796Z,98.81
2018-06-24T01:48:50.801Z,99.43
2018-06-24T01:49:50.795Z,99.24
2018-06-24T01:50:50.786Z,99.67
2018-06-24T01:51:50.781Z,99.62
2018-06-24T01:52:50.777Z,99.62
2018-06-24T01:53:50.774Z,99.14
2018-06-24T01:54:50.775Z,99.43
2018-06-24T01:55:50.770Z,99.33
2018-06-24T01:56:50.768Z,98.95
2018-06-24T01:57:50.763Z,98.85
2018-06-24T01:58:50.755Z,99.43
2018-06-24T01:59:50.752Z,99.43
2018-06-24T02:00:50.748Z,99.24
2018-06-24T02:01:50.744Z,99.48
2018-06-24T02:02:50.746Z,99.99
2018-06-24T02:03:50.740Z,99.96
2018-06-24T02:04:50.732Z,99.90
2018-06-24T02:05:50.730Z,99.43
2018-06-24T02:06:50.733Z,99.24
2018-06-24T02:07:50.725Z,98.85
2018-06-24T02:08:50.721Z,98.85
2018-06-24T02:09:50.718Z,98.43
2018-06-24T02:10:50.709Z,98.61
2018-06-24T02:11:50.705Z,98.33
2018-06-24T02:12:50.702Z,98.52
2018-06-24T02:13:50.698Z,97.90
2018-06-24T02:14:50.700Z,98.14
2018-06-24T02:15:50.694Z,98.24
2018-06-24T02:16:50.691Z,98.14
2018-06-24T02:17:50.687Z,97.47
2018-06-24T02:18:50.679Z,97.08
2018-06-24T02:19:50.674Z,97.75
2018-06-24T02:20:50.677Z,97.75
2018-06-24T02:21:50.671Z,97.47
2018-06-24T02:22:50.663Z,97.28
2018-06-24T02:23:50.658Z,97.23
2018-06-24T02:24:50.654Z,97.52
2018-06-24T02:25:50.654Z,97.90
2018-06-24T02:26:50.651Z,97.71
2018-06-24T02:27:50.646Z,97.13
2018-06-24T02:28:50.642Z,97.71
2018-06-24T02:29:50.640Z,97.71
2018-06-24T02:30:50.636Z,97.52
2018-06-24T02:31:50.625Z,96.89
2018-06-24T02:32:50.621Z,97.23
2018-06-24T02:33:50.621Z,97.13
2018-06-24T02:34:50.618Z,96.84
2018-06-24T02:35:50.613Z,97.33
2018-06-24T02:36:50.612Z,96.75
2018-06-24T02:37:50.601Z,96.75
2018-06-24T02:38:50.604Z,97.23
2018-06-24T02:39:50.596Z,96.94
2018-06-24T02:40:50.596Z,97.13
2018-06-24T02:41:50.589Z,96.84
2018-06-24T02:42:50.580Z,97.04
2018-06-24T02:43:50.574Z,96.84
2018-06-24T02:44:50.570Z,97.52
2018-06-24T02:45:50.570Z,97.71
2018-06-24T02:46:50.568Z,97.42
2018-06-24T02:47:50.561Z,98.18
2018-06-24T02:48:50.558Z,98.09
2018-06-24T02:49:50.560Z,98.09
2018-06-24T02:50:50.546Z,97.99
2018-06-24T02:51:50.541Z,97.99
2018-06-24T02:52:50.540Z,97.80
2018-06-24T02:53:50.537Z,97.71
2018-06-24T02:54:50.528Z,97.52
2018-06-24T02:55:50.523Z,97.52
2018-06-24T02:56:50.522Z,97.23
2018-06-24T02:57:50.516Z,97.52
2018-06-24T02:58:50.517Z,97.99
2018-06-24T02:59:50.512Z,97.71
2018-06-24T03:00:50.508Z,97.90
2018-06-24T03:01:50.503Z,97.90
2018-06-24T03:02:50.495Z,98.38
2018-06-24T03:03:50.489Z,98.09
2018-06-24T03:04:50.485Z,98.66
2018-06-24T03:05:50.481Z,98.75
2018-06-24T03:06:50.482Z,98.38
2018-06-24T03:07:50.477Z,98.28
2018-06-24T03:08:50.468Z,98.09
2018-06-24T03:09:50.464Z,98.18
2018-06-24T03:10:50.467Z,98.09
2018-06-24T03:11:50.459Z,97.90
2018-06-24T03:12:50.456Z,97.80
2018-06-24T03:13:50.452Z,98.75
2018-06-24T03:14:50.443Z,98.28
2018-06-24T03:15:50.439Z,98.28
2018-06-24T03:16:50.435Z,98.57
2018-06-24T03:17:50.430Z,98.66
2018-06-24T03:18:50.431Z,98.57
2018-06-24T03:19:50.426Z,98.47
2018-06-24T03:20:50.432Z,98.47
2018-06-24T03:21:50.419Z,98.28
2018-06-24T03:22:50.411Z,98.28
2018-06-24T03:23:50.406Z,98.09
2018-06-24T03:24:50.406Z,98.85
2018-06-24T03:25:50.402Z,98.85
2018-06-24T03:26:50.395Z,98.66
2018-06-24T03:27:50.388Z,98.38
2018-06-24T03:28:50.383Z,98.71
2018-06-24T03:29:50.379Z,98.71
2018-06-24T03:30:50.385Z,99.19
2018-06-24T03:31:50.375Z,98.99
2018-06-24T03:32:50.370Z,99.19
2018-06-24T03:33:50.366Z,99.38
2018-06-24T03:34:50.358Z,98.99
2018-06-24T03:35:50.353Z,99.48
2018-06-24T03:36:50.349Z,99.57
2018-06-24T03:37:50.356Z,99.38
2018-06-24T03:38:50.346Z,99.19
2018-06-24T03:39:50.341Z,99.38
2018-06-24T03:40:50.331Z,99.28
2018-06-24T03:41:50.327Z,99.99
2018-06-24T03:42:50.328Z,99.85
2018-06-24T03:43:50.323Z,99.99
2018-06-24T03:44:50.318Z,99.99
2018-06-24T03:45:50.316Z,99.95
2018-06-24T03:46:50.305Z,99.95
2018-06-24T03:47:50.300Z,99.95
2018-06-24T03:48:50.296Z,99.76
2018-06-24T03:49:50.292Z,99.57
2018-06-24T03:50:50.295Z,99.85
2018-06-24T03:51:50.287Z,99.85
2018-06-24T03:52:50.284Z,99.76
2018-06-24T03:53:50.282Z,99.99
2018-06-24T03:54:50.271Z,99.76
2018-06-24T03:55:50.265Z,99.99
2018-06-24T03:56:50.265Z,99.66
2018-06-24T03:57:50.266Z,99.66
2018-06-24T03:58:50.254Z,99.57
2018-06-24T03:59:50.247Z,99.76
2018-06-24T04:00:50.243Z,99.99
2018-06-24T04:01:50.245Z,99.95
2018-06-24T04:02:50.239Z,99.95
2018-06-24T04:03:50.236Z,99.85
2018-06-24T04:04:50.320Z,99.76
2018-06-24T04:05:50.226Z,99.99
2018-06-24T04:06:50.218Z,99.99
2018-06-24T04:07:50.214Z,99.99
2018-06-24T04:08:50.209Z,99.76
2018-06-24T04:09:50.203Z,99.99
2018-06-24T04:10:50.204Z,99.85
2018-06-24T04:11:50.199Z,99.38
2018-06-24T04:12:50.190Z,98.95
2018-06-24T04:13:50.186Z,98.85
2018-06-24T04:14:50.190Z,98.47
2018-06-24T04:15:50.183Z,98.57
2018-06-24T04:16:50.177Z,98.66
2018-06-24T04:17:50.173Z,98.47
2018-06-24T04:18:50.164Z,98.38
2018-06-24T04:19:50.160Z,98.09
2018-06-24T04:20:50.160Z,97.90
2018-06-24T04:21:50.157Z,97.90
2018-06-24T04:22:50.147Z,98.09
2018-06-24T04:23:50.142Z,97.90
2018-06-24T04:24:50.138Z,98.47
2018-06-24T04:25:50.188Z,98.09
2018-06-24T04:26:50.139Z,98.09
2018-06-24T04:27:50.130Z,97.80
2018-06-24T04:28:50.131Z,98.66
2018-06-24T04:29:50.120Z,98.47
2018-06-24T04:30:50.122Z,98.47
2018-06-24T04:31:50.116Z,98.38
2018-06-24T04:32:50.111Z,98.66
2018-06-24T04:33:50.105Z,98.38
2018-06-24T04:34:50.098Z,98.66
2018-06-24T04:35:50.092Z,98.47
2018-06-24T04:36:50.089Z,98.28
2018-06-24T04:37:50.086Z,98.66
2018-06-24T04:38:50.087Z,98.57
2018-06-24T04:39:50.081Z,98.09
2018-06-24T04:40:50.080Z,97.90
2018-06-24T04:41:50.073Z,98.09
2018-06-24T04:42:50.066Z,97.99
2018-06-24T04:43:50.062Z,97.90
2018-06-24T04:44:50.061Z,97.99
2018-06-24T04:45:50.058Z,98.47
2018-06-24T04:46:50.052Z,98.18
2018-06-24T04:47:50.050Z,97.95
2018-06-24T04:48:50.043Z,97.80
2018-06-24T04:49:50.043Z,97.18
2018-06-24T04:50:50.038Z,97.56
2018-06-24T04:51:50.036Z,97.08
2018-06-24T04:52:50.029Z,97.37
2018-06-24T04:53:50.027Z,97.18
2018-06-24T04:54:50.018Z,96.89
2018-06-24T04:55:50.014Z,97.23
2018-06-24T04:56:50.010Z,96.37
2018-06-24T04:57:50.009Z,95.41
2018-06-24T04:58:50.015Z,95.12
2018-06-24T04:59:50.006Z,94.65
2018-06-24T05:00:49.995Z,94.74
2018-06-24T05:01:49.992Z,94.21
2018-06-24T05:02:49.995Z,93.45
2018-06-24T05:03:49.992Z,93.93
2018-06-24T05:04:49.987Z,93.93
2018-06-24T05:05:49.987Z,94.07
2018-06-24T05:06:49.981Z,93.40
2018-06-24T05:07:49.971Z,93.11
2018-06-24T05:08:49.969Z,92.63
2018-06-24T05:09:49.967Z,92.92
2018-06-24T05:10:49.972Z,92.25
2018-06-24T05:11:49.978Z,92.06
2018-06-24T05:12:49.969Z,91.58
2018-06-24T05:13:49.962Z,91.96
2018-06-24T05:14:49.957Z,91.39
2018-06-24T05:15:49.949Z,91.67
2018-06-24T05:16:49.954Z,91.67
2018-06-24T05:17:49.952Z,91.10
2018-06-24T05:18:49.944Z,91.10
2018-06-24T05:19:49.939Z,91.43
2018-06-24T05:20:49.939Z,91.63
2018-06-24T05:21:49.939Z,90.57
2018-06-24T05:22:49.936Z,90.86
2018-06-24T05:23:49.930Z,90.57
2018-06-24T05:24:49.930Z,90.52
2018-06-24T05:25:49.927Z,89.51
2018-06-24T05:26:49.924Z,88.55
2018-06-24T05:27:49.926Z,88.17
2018-06-24T05:28:49.916Z,88.35
2018-06-24T05:29:49.914Z,88.02
2018-06-24T05:30:49.915Z,86.77
2018-06-24T05:31:49.914Z,86.58
2018-06-24T05:32:49.907Z,85.91
2018-06-24T05:33:49.908Z,85.14
2018-06-24T05:34:49.908Z,84.47
2018-06-24T05:35:49.906Z,84.85
2018-06-24T05:36:49.906Z,85.42
2018-06-24T05:37:49.913Z,84.75
2018-06-24T05:38:49.901Z,84.56
2018-06-24T05:39:49.898Z,84.61
2018-06-24T05:40:49.895Z,84.14
2018-06-24T05:41:49.894Z,84.91
2018-06-24T05:42:49.910Z,85.04
2018-06-24T05:43:49.896Z,84.52
2018-06-24T05:44:49.894Z,84.66
2018-06-24T05:45:49.893Z,84.81
2018-06-24T05:46:49.889Z,85.28
2018-06-24T05:47:49.889Z,84.52
2018-06-24T05:48:50.016Z,83.65
2018-06-24T05:49:49.888Z,83.80
2018-06-24T05:50:49.887Z,84.18
2018-06-24T05:51:49.881Z,84.56
2018-06-24T05:52:49.880Z,83.89
2018-06-24T05:53:49.881Z,83.26
2018-06-24T05:54:49.884Z,83.45
2018-06-24T05:55:49.883Z,83.49
2018-06-24T05:56:49.881Z,83.01
2018-06-24T05:57:49.882Z,82.38
2018-06-24T05:58:49.879Z,81.42
2018-06-24T05:59:49.893Z,80.88
2018-06-24T06:00:49.876Z,79.44
2018-06-24T06:01:49.872Z,79.48
2018-06-24T06:02:49.918Z,79.48
2018-06-24T06:03:49.874Z,77.98
2018-06-24T06:04:49.871Z,77.63
2018-06-24T06:05:49.871Z,76.51
2018-06-24T06:06:49.876Z,74.72
2018-06-24T06:07:49.876Z,73.41
2018-06-24T06:08:49.875Z,71.96
2018-06-24T06:09:49.878Z,71.00
2018-06-24T06:10:49.873Z,69.71
2018-06-24T06:11:49.943Z,68.78
2018-06-24T06:12:49.874Z,67.91
2018-06-24T06:13:49.898Z,67.17
2018-06-24T06:14:49.883Z,66.33
2018-06-24T06:15:49.883Z,65.47
2018-06-24T06:16:49.886Z,64.43
2018-06-24T06:17:49.887Z,64.95
2018-06-24T06:18:49.885Z,63.59
2018-06-24T06:19:49.887Z,62.11
2018-06-24T06:20:49.894Z,61.46
2018-06-24T06:21:49.906Z,60.69
2018-06-24T06:22:49.900Z,60.34
2018-06-24T06:23:49.901Z,60.78
2018-06-24T06:24:49.903Z,60.82
2018-06-24T06:25:49.906Z,59.66
2018-06-24T06:26:49.915Z,59.23
2018-06-24T06:27:49.921Z,57.84
2018-06-24T06:28:49.921Z,57.14
2018-06-24T06:29:49.925Z,57.14
2018-06-24T06:30:49.926Z,58.33
2018-06-24T06:31:49.933Z,58.39
2018-06-24T06:32:49.934Z,58.65
2018-06-24T06:33:49.939Z,58.85
2018-06-24T06:34:49.949Z,58.72
2018-06-24T06:35:49.953Z,59.40
2018-06-24T06:36:50.072Z,59.95
2018-06-24T06:37:49.956Z,60.69
2018-06-24T06:38:49.967Z,60.50
2018-06-24T06:39:49.970Z,61.02
2018-06-24T06:40:49.974Z,61.83
2018-06-24T06:41:49.978Z,62.93
2018-06-24T06:42:49.979Z,64.47
2018-06-24T06:43:49.981Z,66.30
2018-06-24T06:44:49.985Z,67.46
2018-06-24T06:45:50.087Z,68.00
2018-06-24T06:46:49.996Z,68.48
2018-06-24T06:47:49.999Z,68.68
2018-06-24T06:48:50.003Z,69.45
2018-06-24T06:49:50.007Z,70.12
2018-06-24T06:50:50.004Z,71.66
2018-06-24T06:51:50.010Z,71.66
2018-06-24T06:52:50.014Z,72.05
2018-06-24T06:53:50.018Z,71.60
2018-06-24T06:54:50.014Z,71.79
2018-06-24T06:55:50.017Z,71.08
2018-06-24T06:56:50.020Z,71.08
2018-06-24T06:57:50.067Z,72.05
2018-06-24T06:58:50.027Z,71.66
2018-06-24T06:59:50.029Z,72.43
2018-06-24T07:00:50.031Z,72.30
2018-06-24T07:01:50.034Z,72.01
2018-06-24T07:02:50.032Z,72.68
2018-06-24T07:03:50.033Z,72.49
2018-06-24T07:04:50.036Z,72.94
2018-06-24T07:05:50.052Z,73.42
2018-06-24T07:06:50.043Z,73.61
2018-06-24T07:07:50.043Z,74.19
2018-06-24T07:08:50.040Z,74.44
2018-06-24T07:09:50.092Z,74.92
2018-06-24T07:10:50.048Z,75.40
2018-06-24T07:11:50.049Z,75.75
2018-06-24T07:12:50.050Z,75.46
2018-06-24T07:13:50.050Z,75.84
2018-06-24T07:14:50.049Z,76.61
2018-06-24T07:15:50.047Z,77.48
2018-06-24T07:16:50.048Z,78.15
2018-06-24T07:17:50.052Z,78.06
2018-06-24T07:18:50.054Z,77.58
2018-06-24T07:19:50.055Z,76.90
2018-06-24T07:20:50.055Z,76.52
2018-06-24T07:21:50.056Z,76.71
2018-06-24T07:22:50.056Z,76.61
2018-06-24T07:23:50.053Z,76.14
2018-06-24T07:24:50.059Z,75.84
2018-06-24T07:25:50.058Z,77.13
2018-06-24T07:26:50.057Z,76.75
2018-06-24T07:27:50.132Z,75.98
2018-06-24T07:28:50.054Z,76.07
2018-06-24T07:29:50.056Z,76.36
2018-06-24T07:30:50.060Z,75.82
2018-06-24T07:31:50.060Z,75.82
2018-06-24T07:32:50.065Z,74.57
2018-06-24T07:33:50.260Z,75.05
2018-06-24T07:34:50.057Z,74.22
2018-06-24T07:35:50.058Z,74.51
2018-06-24T07:36:50.058Z,73.65
2018-06-24T07:37:50.059Z,73.22
2018-06-24T07:38:50.065Z,73.61
2018-06-24T07:39:50.065Z,74.48
2018-06-24T07:40:50.064Z,73.96
2018-06-24T07:41:50.063Z,74.05
2018-06-24T07:42:50.067Z,73.96
2018-06-24T07:43:50.070Z,74.60
2018-06-24T07:44:50.070Z,75.69
2018-06-24T07:45:50.072Z,75.59
2018-06-24T07:46:50.069Z,74.82
2018-06-24T07:47:50.069Z,74.05
2018-06-24T07:48:50.072Z,74.05
2018-06-24T07:49:50.071Z,73.67
2018-06-24T07:50:50.079Z,73.57
2018-06-24T07:51:50.077Z,73.38
2018-06-24T07:52:50.079Z,73.47
2018-06-24T07:53:50.079Z,74.25
2018-06-24T07:54:50.077Z,73.61
2018-06-24T07:55:50.076Z,73.16
2018-06-24T07:56:50.082Z,73.30
2018-06-24T07:57:50.084Z,71.53
2018-06-24T07:58:50.081Z,70.86
2018-06-24T07:59:50.082Z,70.09
2018-06-24T08:00:50.084Z,70.56
2018-06-24T08:01:50.087Z,69.89
2018-06-24T08:02:50.091Z,69.79
2018-06-24T08:03:50.094Z,69.95
2018-06-24T08:04:50.095Z,70.62
2018-06-24T08:05:50.100Z,70.76
2018-06-24T08:06:50.094Z,70.72
2018-06-24T08:07:50.095Z,70.62
2018-06-24T08:08:50.097Z,70.62
2018-06-24T08:09:50.099Z,71.36
2018-06-24T08:10:50.105Z,71.46
2018-06-24T08:11:50.107Z,71.49
2018-06-24T08:12:50.105Z,72.20
2018-06-24T08:13:50.106Z,71.47
2018-06-24T08:14:50.113Z,70.25
2018-06-24T08:15:50.115Z,69.42
2018-06-24T08:16:50.118Z,68.84
2018-06-24T08:17:50.121Z,67.94
2018-06-24T08:18:50.119Z,67.36
2018-06-24T08:19:50.118Z,66.30
2018-06-24T08:20:50.122Z,64.69
2018-06-24T08:21:50.124Z,64.24
2018-06-24T08:22:50.168Z,63.37
2018-06-24T08:23:50.133Z,62.53
2018-06-24T08:24:50.138Z,62.08
2018-06-24T08:25:50.141Z,60.63
2018-06-24T08:26:50.149Z,60.37
2018-06-24T08:27:50.143Z,59.91
2018-06-24T08:28:50.150Z,59.17
2018-06-24T08:29:50.154Z,58.62
2018-06-24T08:30:50.153Z,57.00
2018-06-24T08:31:50.157Z,55.57
2018-06-24T08:32:50.162Z,54.72
2018-06-24T08:33:50.170Z,53.78
2018-06-24T08:34:50.177Z,53.74
2018-06-24T08:35:50.183Z,52.57
2018-06-24T08:36:50.187Z,52.76
2018-06-24T08:37:50.196Z,51.79
2018-06-24T08:38:50.197Z,51.50
2018-06-24T08:39:50.199Z,51.57
2018-06-24T08:40:50.206Z,51.26
2018-06-24T08:41:50.239Z,51.55
2018-06-24T08:42:50.223Z,51.45
2018-06-24T08:43:50.228Z,51.84
2018-06-24T08:44:50.230Z,52.33
2018-06-24T08:45:50.237Z,52.40
2018-06-24T08:46:50.249Z,52.59
2018-06-24T08:47:50.253Z,52.69
2018-06-24T08:48:50.262Z,52.86
2018-06-24T08:49:50.267Z,53.92
2018-06-24T08:50:50.269Z,53.75
2018-06-24T08:51:50.277Z,52.95
2018-06-24T08:52:50.282Z,52.87
2018-06-24T08:53:50.289Z,53.55
2018-06-24T08:54:50.300Z,53.75
2018-06-24T08:55:50.312Z,53.94
2018-06-24T08:56:50.312Z,54.52
2018-06-24T08:57:50.318Z,54.45
2018-06-24T08:58:50.320Z,53.97
2018-06-24T08:59:50.325Z,54.09
2018-06-24T09:00:50.337Z,54.55
2018-06-24T09:01:50.343Z,54.84
2018-06-24T09:02:50.344Z,55.98
2018-06-24T09:03:50.350Z,55.76
2018-06-24T09:04:50.355Z,56.79
2018-06-24T09:05:50.361Z,57.24
2018-06-24T09:06:50.373Z,58.25
2018-06-24T09:07:50.377Z,59.41
2018-06-24T09:08:50.382Z,60.76
2018-06-24T09:09:50.393Z,59.53
2018-06-24T09:10:50.392Z,60.41
2018-06-24T09:11:50.394Z,59.73
2018-06-24T09:12:50.399Z,59.56
2018-06-24T09:13:50.404Z,59.69
2018-06-24T09:14:50.447Z,59.21
2018-06-24T09:15:50.459Z,58.59
2018-06-24T09:16:50.419Z,57.17
2018-06-24T09:17:50.424Z,56.41
2018-06-24T09:18:50.434Z,54.72
2018-06-24T09:19:50.438Z,53.08
2018-06-24T09:20:50.444Z,52.15
2018-06-24T09:21:50.451Z,51.67
2018-06-24T09:22:50.452Z,50.89
2018-06-24T09:23:50.457Z,50.34
2018-06-24T09:24:50.464Z,49.15
2018-06-24T09:25:50.471Z,47.63
2018-06-24T09:26:50.487Z,46.27
2018-06-24T09:27:50.490Z,45.05
2018-06-24T09:28:50.498Z,44.42
2018-06-24T09:29:50.505Z,44.71
2018-06-24T09:30:50.552Z,45.72
2018-06-24T09:31:50.527Z,45.97
2018-06-24T09:32:50.531Z,47.98
2018-06-24T09:33:50.540Z,47.76
2018-06-24T09:34:50.547Z,48.93
2018-06-24T09:35:50.553Z,49.41
2018-06-24T09:36:50.563Z,49.39
2018-06-24T09:37:50.572Z,49.19
2018-06-24T09:38:50.584Z,49.49
2018-06-24T09:39:50.592Z,49.87
2018-06-24T09:40:50.628Z,49.63
2018-06-24T09:41:50.608Z,48.30
2018-06-24T09:42:50.613Z,47.56
2018-06-24T09:43:50.618Z,46.28
2018-06-24T09:44:50.627Z,45.87
2018-06-24T09:45:50.648Z,45.42
2018-06-24T09:46:50.648Z,45.08
2018-06-24T09:47:50.657Z,45.07
2018-06-24T09:48:50.663Z,44.12
2018-06-24T09:49:50.670Z,42.89
2018-06-24T09:50:50.684Z,41.93
2018-06-24T09:51:50.694Z,40.63
2018-06-24T09:52:50.723Z,39.01
2018-06-24T09:53:50.716Z,38.35
2018-06-24T09:54:50.723Z,37.58
2018-06-24T09:55:50.734Z,36.11
2018-06-24T09:56:50.748Z,35.13
2018-06-24T09:57:50.759Z,33.75
2018-06-24T09:58:50.778Z,33.25
2018-06-24T09:59:50.789Z,33.17
2018-06-24T10:00:50.805Z,33.41
2018-06-24T10:01:50.823Z,34.10
2018-06-24T10:02:50.829Z,33.29
2018-06-24T10:03:50.843Z,32.53
2018-06-24T10:04:50.862Z,31.79
2018-06-24T10:05:50.878Z,32.04
2018-06-24T10:06:50.888Z,33.18
2018-06-24T10:07:50.903Z,34.09
2018-06-24T10:08:51.325Z,35.09
2018-06-24T10:09:50.940Z,35.14
2018-06-24T10:10:50.954Z,34.86
2018-06-24T10:11:50.967Z,34.67
2018-06-24T10:12:50.986Z,33.46
2018-06-24T10:13:51.000Z,33.65
2018-06-24T10:14:51.010Z,34.83
2018-06-24T10:15:51.025Z,35.45
2018-06-24T10:16:51.043Z,36.00
2018-06-24T10:17:51.058Z,35.69
2018-06-24T10:18:51.075Z,35.40
2018-06-24T10:19:51.091Z,35.11
2018-06-24T10:20:51.101Z,34.65
2018-06-24T10:21:51.115Z,34.16
2018-06-24T10:22:51.134Z,33.70
2018-06-24T10:23:51.150Z,33.53
2018-06-24T10:24:51.165Z,33.20
2018-06-24T10:25:51.178Z,33.51
2018-06-24T10:26:51.189Z,33.43
2018-06-24T10:27:51.204Z,32.35
2018-06-24T10:28:51.220Z,31.86
2018-06-24T10:29:51.235Z,32.50
2018-06-24T10:30:51.258Z,31.81
2018-06-24T10:31:51.269Z,30.62
2018-06-24T10:32:51.288Z,30.64
2018-06-24T10:33:51.301Z,30.83
2018-06-24T10:34:51.312Z,30.85
2018-06-24T10:35:51.329Z,30.94
2018-06-24T10:36:51.348Z,30.94
2018-06-24T10:37:51.363Z,30.83
2018-06-24T10:38:51.376Z,30.38
2018-06-24T10:39:51.396Z,30.97
2018-06-24T10:40:51.406Z,31.43
2018-06-24T10:41:51.420Z,32.11
2018-06-24T10:42:51.439Z,32.99
2018-06-24T10:43:51.453Z,33.28
2018-06-24T10:44:51.469Z,32.62
2018-06-24T10:45:51.483Z,32.96
2018-06-24T10:46:51.493Z,33.72
2018-06-24T10:47:51.505Z,33.98
2018-06-24T10:48:51.521Z,35.26
2018-06-24T10:49:51.533Z,36.65
2018-06-24T10:50:51.550Z,37.07
2018-06-24T10:51:51.563Z,37.40
2018-06-24T10:52:51.583Z,37.52
2018-06-24T10:53:51.585Z,36.94
2018-06-24T10:54:51.603Z,36.04
2018-06-24T10:55:51.615Z,36.73
2018-06-24T10:56:51.628Z,36.46
2018-06-24T10:57:51.640Z,35.95
2018-06-24T10:58:51.648Z,36.16
2018-06-24T10:59:51.659Z,35.68
2018-06-24T11:00:51.672Z,35.60
2018-06-24T11:01:51.689Z,35.79
2018-06-24T11:02:51.702Z,35.48
2018-06-24T11:03:51.713Z,36.16
2018-06-24T11:04:51.724Z,36.67
2018-06-24T11:05:51.737Z,36.16
2018-06-24T11:06:51.746Z,35.97
2018-06-24T11:07:51.757Z,35.48
2018-06-24T11:08:51.773Z,34.81
2018-06-24T11:09:51.834Z,35.56
2018-06-24T11:10:51.794Z,35.35
2018-06-24T11:11:51.807Z,35.55
2018-06-24T11:12:51.850Z,35.63
2018-06-24T11:13:51.831Z,36.10
2018-06-24T11:14:51.850Z,35.90
2018-06-24T11:15:51.860Z,36.65
2018-06-24T11:16:51.873Z,37.23
2018-06-24T11:17:51.884Z,37.39
2018-06-24T11:18:51.892Z,38.34
2018-06-24T11:19:51.901Z,38.24
2018-06-24T11:20:51.912Z,38.83
2018-06-24T11:21:51.970Z,40.41
2018-06-24T11:22:51.939Z,40.80
2018-06-24T11:23:51.948Z,40.21
2018-06-24T11:24:51.954Z,39.80
2018-06-24T11:25:51.968Z,38.62
2018-06-24T11:26:51.981Z,38.81
2018-06-24T11:27:51.988Z,39.47
2018-06-24T11:28:51.999Z,39.96
2018-06-24T11:29:52.009Z,40.44
2018-06-24T11:30:52.014Z,40.72
2018-06-24T11:31:52.022Z,40.91
2018-06-24T11:32:52.031Z,40.91
2018-06-24T11:33:52.041Z,40.73
2018-06-24T11:34:52.055Z,40.52
2018-06-24T11:35:52.061Z,41.20
2018-06-24T11:36:52.118Z,40.60
2018-06-24T11:37:52.078Z,40.61
2018-06-24T11:38:52.082Z,41.58
2018-06-24T11:39:52.091Z,43.23
2018-06-24T11:40:52.104Z,43.74
2018-06-24T11:41:52.112Z,43.93
2018-06-24T11:42:52.114Z,44.54
2018-06-24T11:43:52.125Z,43.66
2018-06-24T11:44:52.131Z,43.41
2018-06-24T11:45:52.137Z,43.99
2018-06-24T11:46:52.149Z,44.93
2018-06-24T11:47:52.161Z,46.31
2018-06-24T11:48:52.162Z,47.20
2018-06-24T11:49:52.170Z,47.40
2018-06-24T11:50:52.173Z,46.65
2018-06-24T11:51:52.180Z,46.75
2018-06-24T11:52:52.190Z,46.28
2018-06-24T11:53:52.195Z,46.48
2018-06-24T11:54:52.207Z,45.70
2018-06-24T11:55:52.213Z,45.10
2018-06-24T11:56:52.231Z,44.71
2018-06-24T11:57:52.222Z,45.47
2018-06-24T11:58:52.233Z,46.07
2018-06-24T11:59:52.240Z,46.16
2018-06-24T12:00:52.246Z,46.07
2018-06-24T12:01:52.256Z,46.07
2018-06-24T12:02:52.257Z,46.45
2018-06-24T12:03:52.261Z,46.55
2018-06-24T12:04:52.271Z,46.16
2018-06-24T12:05:52.275Z,45.48
2018-06-24T12:06:52.308Z,45.10
2018-06-24T12:07:52.292Z,43.84
2018-06-24T12:08:52.298Z,43.50
2018-06-24T12:09:52.376Z,45.05
2018-06-24T12:10:52.375Z,45.34
2018-06-24T12:11:52.312Z,46.22
2018-06-24T12:12:52.325Z,46.22
2018-06-24T12:13:52.331Z,46.33
2018-06-24T12:14:52.332Z,46.14
2018-06-24T12:15:52.338Z,46.14
2018-06-24T12:16:52.344Z,46.36
2018-06-24T12:17:52.350Z,46.84
2018-06-24T12:18:52.361Z,45.58
2018-06-24T12:19:52.367Z,45.12
2018-06-24T12:20:52.373Z,45.12
2018-06-24T12:21:52.381Z,43.74
2018-06-24T12:22:52.383Z,43.23
2018-06-24T12:23:52.387Z,43.62
2018-06-24T12:24:52.395Z,43.62
2018-06-24T12:25:52.401Z,43.33
2018-06-24T12:26:52.413Z,44.78
2018-06-24T12:27:52.417Z,45.00
2018-06-24T12:28:52.421Z,45.10
2018-06-24T12:29:52.425Z,45.20
2018-06-24T12:30:52.438Z,44.88
2018-06-24T12:31:52.442Z,45.85
2018-06-24T12:32:52.447Z,45.83
2018-06-24T12:33:52.453Z,46.09
2018-06-24T12:34:52.455Z,46.19
2018-06-24T12:35:52.459Z,46.09
2018-06-24T12:36:52.465Z,47.36
2018-06-24T12:37:52.471Z,48.22
2018-06-24T12:38:52.482Z,48.32
2018-06-24T12:39:52.486Z,48.32
2018-06-24T12:40:52.493Z,48.52
2018-06-24T12:41:52.498Z,49.00
2018-06-24T12:42:52.503Z,48.90
2018-06-24T12:43:52.504Z,49.39
2018-06-24T12:44:52.514Z,49.90
2018-06-24T12:45:52.521Z,50.38
2018-06-24T12:46:52.521Z,50.16
2018-06-24T12:47:52.526Z,50.14
2018-06-24T12:48:52.532Z,49.95
2018-06-24T12:49:52.536Z,50.14
2018-06-24T12:50:52.546Z,50.72
2018-06-24T12:51:52.550Z,50.92
2018-06-24T12:52:52.561Z,51.20